Date,TemperatureHighF,TemperatureAvgF,TemperatureLowF,DewpointHighF,DewpointAvgF,DewpointLowF,HumidityHigh,HumidityAvg,HumidityLow,PressureMaxIn,PressureMinIn,WindSpeedMaxMPH,WindSpeedAvgMPH,GustSpeedMaxMPH,PrecipitationSumIn
2012-8-8,74.1,74.0,73.9,69.1,68.5,68.1,85,83,82,30.01,29.99,8,6,8,0.00
2012-8-9,76.3,74.8,70.9,73.4,71.8,68.9,94,91,84,30.01,29.95,14,6,14,0.00
2012-8-10,78.3,76.0,73.4,74.6,73.5,71.7,96,92,86,29.98,29.83,38,15,38,0.72
2012-8-11,78.0,76.1,73.9,74.9,73.7,70.6,96,92,85,29.98,29.85,24,11,24,0.31
2012-8-12,78.3,75.5,72.7,74.4,72.8,70.5,96,91,82,29.99,29.92,28,12,28,0.12
2012-8-13,84.3,75.2,70.2,72.5,69.0,65.7,96,82,59,29.98,29.93,19,8,19,0.00
2012-8-14,86.5,74.8,67.6,70.3,66.8,61.5,91,77,45,29.99,29.94,19,7,19,0.00
2012-8-15,77.3,74.2,67.9,72.4,70.1,66.0,95,87,78,29.97,29.87,18,6,18,0.98
2012-8-16,86.0,74.2,67.2,72.7,67.6,64.1,96,81,55,29.89,29.82,17,4,17,0.00
2012-8-17,84.0,74.9,66.2,72.6,67.4,62.5,90,78,54,29.89,29.83,23,8,23,0.00
2012-8-18,75.4,69.4,64.7,71.9,66.8,62.4,95,91,85,29.92,29.83,15,3,15,0.45
2012-8-19,64.7,63.5,62.2,63.2,62.2,61.0,96,96,95,29.92,29.90,7,2,7,0.00
2012-8-22,71.9,70.6,69.1,61.3,60.2,58.9,71,70,68,30.17,30.16,8,4,9,0.00
2012-8-23,78.3,71.7,64.7,69.2,64.6,58.5,91,79,64,30.18,30.13,21,6,21,0.00
2012-8-24,84.5,74.4,65.9,70.0,66.3,61.8,92,77,47,30.24,30.13,11,2,11,0.00
2012-8-25,79.2,73.0,67.7,69.0,64.3,57.3,94,76,48,30.36,30.24,10,2,10,0.00
2012-8-26,78.8,70.5,63.9,66.5,63.0,56.3,95,79,48,30.37,30.28,13,3,13,0.00
2012-8-27,74.8,74.6,74.4,72.3,71.9,71.6,92,91,91,30.02,29.99,19,12,19,0.00
2012-8-28,86.8,77.1,71.0,74.0,71.3,66.3,94,83,58,29.99,29.74,24,7,24,0.08
2012-8-29,79.5,70.3,62.0,66.4,56.5,49.6,87,64,38,30.01,29.87,12,3,12,0.00
2012-8-30,79.1,68.4,59.1,60.7,56.9,48.4,84,68,35,30.08,30.00,21,7,21,0.00
2012-8-31,86.5,74.7,65.4,69.5,61.9,54.3,82,66,36,30.03,29.85,22,8,22,0.00
2012-9-1,79.0,73.3,65.7,68.0,62.8,55.6,81,70,60,30.15,29.87,17,4,17,0.00
2012-9-2,73.9,68.6,64.0,62.4,57.1,42.4,88,68,35,30.17,30.07,12,4,12,0.00
2012-9-3,74.1,67.2,60.6,63.7,59.7,55.6,94,78,60,30.25,30.16,17,5,17,0.00
2012-9-4,74.4,71.8,68.0,72.7,67.8,61.2,95,87,77,30.20,29.93,22,13,22,0.17
2012-9-5,75.0,73.2,66.4,73.3,71.7,64.9,97,95,92,29.93,29.78,28,10,28,1.22
2012-9-6,74.7,67.3,64.0,69.0,64.8,62.8,97,92,77,29.94,29.85,8,1,8,0.01
2012-9-8,77.3,76.1,72.3,74.1,72.6,70.2,96,89,84,29.90,29.70,36,19,36,0.29
2012-9-9,72.0,65.0,59.5,70.4,61.6,57.4,96,89,74,29.87,29.74,12,2,12,0.00
2012-9-10,73.2,62.8,56.4,58.2,54.3,47.6,96,75,51,30.07,29.85,17,4,17,0.00
2012-9-11,75.2,60.9,50.5,55.3,49.9,43.8,88,69,37,30.31,30.07,18,6,18,0.00
2012-9-12,75.5,65.1,56.2,62.1,58.0,53.3,92,79,52,30.40,30.31,18,6,18,0.00
2012-9-13,69.9,63.6,61.2,62.0,59.5,57.9,90,87,74,30.41,30.38,14,3,14,0.00
2012-9-15,77.0,68.6,58.3,64.3,56.6,52.8,88,67,49,30.08,30.00,15,4,15,0.01
2012-9-16,74.8,63.2,52.6,55.0,51.2,47.0,88,68,39,30.12,30.02,17,4,17,0.00
2012-9-17,72.4,62.1,51.3,59.0,54.1,48.1,92,76,49,30.14,30.08,17,5,17,0.00
2012-9-18,73.6,69.9,64.6,69.1,64.0,58.0,86,81,76,30.11,29.81,40,19,40,0.00
2012-9-19,75.9,68.3,60.3,69.6,60.5,49.6,97,78,44,30.17,29.77,42,9,42,0.66
2012-9-21,65.3,61.3,59.1,57.2,55.4,52.6,91,81,67,30.16,30.03,15,3,15,0.00
2012-9-22,68.8,63.0,58.7,65.3,59.8,57.0,95,89,80,30.03,29.89,24,6,24,0.00
2012-9-23,76.0,67.4,54.5,67.0,56.4,46.7,91,70,39,30.11,29.85,25,6,25,0.00
2012-9-24,71.7,59.2,48.8,51.8,46.6,41.3,88,66,35,30.16,30.10,18,4,18,0.00
2012-9-25,68.3,61.4,50.4,57.8,50.9,43.4,89,69,45,30.24,30.16,34,11,34,0.00
2012-9-26,70.3,67.5,64.8,64.8,61.6,56.4,92,81,74,30.20,30.06,32,14,32,0.00
2012-9-27,73.8,64.6,58.1,65.0,58.4,51.6,94,81,62,30.27,30.04,15,3,15,0.00
2012-9-28,63.8,60.0,57.2,62.3,54.8,50.0,96,83,71,30.27,29.95,21,3,21,1.40
2012-9-29,62.9,59.4,56.4,61.4,58.2,54.4,97,96,93,29.96,29.90,11,3,11,0.28
2012-9-30,60.8,59.1,57.0,59.4,56.7,54.2,97,92,86,29.81,29.77,15,5,15,0.56
2012-10-1,71.7,60.9,52.0,57.1,52.3,48.4,89,74,54,29.99,29.78,28,9,28,0.00
2012-10-2,70.0,62.6,57.2,61.1,56.9,52.9,94,82,62,30.10,29.98,16,5,16,0.07
2012-10-3,68.7,64.1,60.6,67.8,62.9,58.6,97,96,93,30.16,30.05,7,1,7,0.05
2012-10-4,65.3,62.3,60.6,63.8,61.0,59.3,97,95,93,30.17,30.05,12,2,12,0.02
2012-10-5,71.0,64.4,60.5,64.8,61.6,59.1,97,91,79,30.07,29.96,14,4,14,0.00
2012-10-6,70.7,65.7,56.1,65.8,62.5,50.0,96,90,80,29.96,29.80,27,10,27,0.01
2012-10-7,67.5,54.2,47.6,51.9,48.0,43.8,93,81,46,30.10,29.96,15,3,15,0.09
2012-10-8,60.9,52.5,45.3,52.1,47.0,42.9,95,82,63,30.35,30.09,14,2,14,0.04
2012-10-9,57.0,54.6,52.7,53.8,51.8,49.5,95,90,82,30.34,30.15,18,5,18,0.09
2012-10-10,63.7,59.5,54.5,61.6,57.4,52.4,96,93,84,30.15,29.76,27,6,27,0.04
2012-10-11,63.4,54.1,47.3,52.5,42.1,36.8,84,65,40,30.20,29.84,22,7,22,0.00
2012-10-12,62.4,51.3,41.3,48.6,41.7,30.0,85,70,50,30.39,30.06,20,6,20,0.00
2012-10-13,56.4,45.6,34.4,36.6,32.0,25.3,87,61,33,30.53,30.37,17,5,17,0.00
2012-10-14,65.0,59.3,46.2,60.3,52.8,37.3,90,79,67,30.37,30.03,38,15,38,0.00
2012-10-15,67.3,65.2,63.1,63.4,62.0,59.8,94,89,85,30.03,29.65,28,16,28,0.00
2012-10-16,64.4,56.4,44.9,62.6,47.8,39.6,95,75,49,29.90,29.58,23,6,24,0.08
2012-10-17,61.6,46.2,39.9,44.8,40.6,37.8,93,82,48,30.01,29.89,8,3,9,0.00
2012-10-20,65.8,61.8,58.1,63.3,59.2,52.8,96,91,83,29.79,29.68,24,12,24,0.54
2012-10-21,66.2,57.0,49.7,52.8,45.2,42.1,83,66,46,29.95,29.79,24,7,24,0.00
2012-10-22,69.3,58.2,50.0,48.5,45.2,42.8,80,63,42,30.03,29.92,22,6,22,0.00
2012-10-23,70.9,56.9,48.4,52.1,48.2,44.2,91,74,41,30.14,30.03,15,4,15,0.05
2012-10-24,54.4,52.9,49.1,52.2,47.4,44.6,93,82,71,30.25,30.13,13,2,13,0.00
2012-10-25,62.6,53.0,43.5,50.9,45.5,34.8,95,77,45,30.34,30.25,11,3,11,0.00
2012-10-26,62.9,54.5,45.3,54.1,47.5,32.9,96,79,34,30.31,30.16,17,5,17,0.00
2012-10-27,68.1,55.7,47.6,56.8,49.6,45.3,95,82,57,30.17,30.01,11,3,11,0.00
2012-10-28,58.6,55.6,53.0,53.8,51.9,49.6,94,88,81,30.02,29.72,25,7,25,0.00
2012-10-29,66.5,59.7,54.1,62.5,57.7,52.1,96,93,86,29.73,29.13,53,16,53,0.55
2012-10-30,64.5,61.2,54.9,60.9,58.3,54.1,97,90,84,29.63,29.33,44,10,44,0.35
2012-10-31,59.6,55.5,50.7,58.7,51.2,44.8,98,86,74,29.62,29.50,22,8,22,0.03
2012-11-1,55.6,51.1,47.1,46.8,44.5,42.2,91,78,66,29.62,29.56,25,7,25,0.00
2012-11-2,55.6,48.8,42.9,46.2,42.2,38.1,87,78,64,29.65,29.57,15,4,15,0.00
2012-11-3,59.7,47.4,40.1,43.7,38.4,33.8,86,72,51,29.83,29.65,16,5,16,0.00
2012-11-4,53.7,40.1,37.9,40.6,33.4,32.8,83,77,61,29.89,29.83,12,6,12,0.00
2012-11-5,48.1,41.1,34.0,34.5,30.2,26.3,77,65,52,30.16,29.97,15,4,15,0.00
2012-11-6,48.3,37.5,30.1,30.7,26.3,20.6,83,65,37,30.27,30.16,13,4,13,0.00
2012-11-7,46.5,42.7,35.7,39.4,37.1,30.7,94,81,68,30.17,29.62,43,13,43,0.60
2012-11-8,44.8,42.3,39.7,43.5,41.0,38.2,96,95,94,29.75,29.46,44,14,44,0.67
2012-11-9,57.0,45.3,38.5,42.2,35.9,27.9,94,71,41,30.16,29.74,22,6,22,0.00
2012-11-10,62.0,46.5,38.5,41.3,36.7,28.3,92,71,37,30.50,30.15,13,3,13,0.00
2012-11-11,58.2,51.5,38.2,53.2,47.9,36.4,95,88,77,30.57,30.50,21,8,21,0.00
2012-11-12,56.9,54.2,52.8,54.5,52.7,51.4,96,95,92,30.54,30.51,14,5,14,0.00
2012-11-14,44.0,42.3,38.9,35.8,35.1,34.3,85,75,71,30.50,30.45,7,5,10,0.02
2012-11-15,44.4,43.5,41.8,38.8,37.0,35.6,86,78,72,30.44,30.32,9,6,17,0.00
2012-11-16,49.9,41.7,36.4,40.3,36.7,34.0,93,83,68,30.44,30.29,7,4,12,0.00
2012-11-17,50.4,42.0,35.1,42.7,36.3,32.3,94,81,62,30.69,30.43,6,4,15,0.00
2012-11-18,48.9,40.3,33.6,40.5,34.7,32.1,95,81,57,30.73,30.63,8,4,8,0.00
2012-11-19,50.0,43.0,35.6,43.7,39.1,34.0,95,87,77,30.63,30.32,7,4,11,0.00